Time;durP1;ratioP1;P1;durP2;ratioP2;P2;SDS_P1;SDS_P2;PMS_P1;PMS_P2;Temp;Humidity;BMP_temperature;BMP_pressure;BME280_temperature;BME280_humidity;BME280_pressure;Samples;Min_cycle;Max_cycle;Signal;HPM_P1;HPM_P2
2021/07/13 00:02:20;;;;;;;7.88;2.90;;;;;;;24.15;48.61;99339.91;4958915;28;20143;-78
2021/07/13 00:04:47;;;;;;;7.90;3.53;;;;;;;24.11;48.64;99337.81;4961224;28;20162;-78
2021/07/13 00:07:14;;;;;;;4.25;3.20;;;;;;;24.14;47.85;99342.75;4955557;29;20542;-78
2021/07/13 00:09:41;;;;;;;6.60;2.90;;;;;;;24.32;46.77;99337.84;4960849;28;20059;-79
2021/07/13 00:12:10;;;;;;;10.13;3.70;;;;;;;24.01;48.00;99340.75;4955959;29;20501;-78
2021/07/13 00:14:37;;;;;;;10.75;3.33;;;;;;;24.34;46.02;99335.81;4970609;28;20078;-79
2021/07/13 00:17:06;;;;;;;5.07;2.65;;;;;;;24.47;45.54;99329.84;4975240;28;20049;-79
2021/07/13 00:19:34;;;;;;;6.35;2.88;;;;;;;24.54;45.55;99320.09;4967722;28;20050;-79
2021/07/13 00:22:03;;;;;;;3.42;2.90;;;;;;;24.57;45.45;99314.41;4956008;29;20126;-79
2021/07/13 00:24:30;;;;;;;3.58;2.70;;;;;;;24.58;45.90;99304.56;4966371;28;20046;-79
2021/07/13 00:26:57;;;;;;;3.40;3.10;;;;;;;24.47;46.50;99309.38;4969869;28;20035;-79
2021/07/13 00:29:24;;;;;;;8.90;3.25;;;;;;;24.43;45.92;99293.94;4950249;28;20043;-79
2021/07/13 00:31:50;;;;;;;6.60;4.35;;;;;;;24.52;46.26;99295.50;4975067;28;20053;-79
2021/07/13 00:34:18;;;;;;;5.80;2.90;;;;;;;24.33;47.22;99302.22;4965644;28;20043;-79
2021/07/13 00:36:45;;;;;;;4.38;2.22;;;;;;;24.07;47.87;99296.56;4968948;28;20413;-79
2021/07/13 00:39:12;;;;;;;3.30;2.83;;;;;;;24.14;47.71;99303.66;4958361;28;20063;-79
2021/07/13 00:41:39;;;;;;;4.28;2.92;;;;;;;24.11;47.94;99304.00;4949280;28;20345;-80
2021/07/13 00:44:06;;;;;;;7.93;2.65;;;;;;;24.15;47.85;99299.97;4959068;28;20447;-79
2021/07/13 00:46:46;;;;;;;9.20;2.70;;;;;;;24.11;47.52;99296.03;4938029;29;20051;-80
2021/07/13 00:49:16;;;;;;;3.97;3.08;;;;;;;24.14;47.10;99289.50;4936955;29;20494;-78
2021/07/13 00:51:46;;;;;;;3.97;2.75;;;;;;;23.97;48.13;99271.09;4947452;28;20043;-80
2021/07/13 00:54:15;;;;;;;5.68;2.88;;;;;;;24.07;47.93;99270.78;4955825;28;20490;-79
2021/07/13 00:56:49;;;;;;;10.57;2.75;;;;;;;23.90;48.43;99272.84;4956243;28;20047;-79
2021/07/13 00:59:16;;;;;;;;;;;;;;;23.65;48.64;99269.66;4957360;28;20103;-79
2021/07/13 01:01:46;;;;;;;2.53;2.30;;;;;;;23.72;48.13;99259.09;4974279;28;19922;-80
2021/07/13 01:04:17;;;;;;;4.80;3.45;;;;;;;24.11;47.41;99268.56;4974075;28;20450;-80
2021/07/13 01:06:57;;;;;;;6.20;3.03;;;;;;;24.13;47.47;99272.72;4973676;28;20046;-80
2021/07/13 01:09:49;;;;;;;4.90;2.95;;;;;;;23.91;48.30;99260.34;4935891;29;20074;-80
2021/07/13 01:12:46;;;;;;;6.13;2.75;;;;;;;23.94;48.29;99265.31;4968693;28;20042;-81
2021/07/13 01:15:20;;;;;;;4.35;2.90;;;;;;;23.98;48.46;99245.31;4931813;28;20129;-79
2021/07/13 01:18:00;;;;;;;5.38;2.92;;;;;;;23.83;49.00;99252.50;4960608;28;20121;-80
2021/07/13 01:20:46;;;;;;;2.95;2.60;;;;;;;23.98;48.76;99246.13;4971774;28;20512;-80
2021/07/13 01:23:22;;;;;;;4.25;3.38;;;;;;;23.98;48.77;99245.31;4963827;28;20126;-79
2021/07/13 01:26:06;;;;;;;5.47;3.10;;;;;;;23.99;48.96;99247.78;4965199;28;20067;-80
2021/07/13 01:28:40;;;;;;;9.18;3.38;;;;;;;24.09;49.34;99257.31;4965986;28;20073;-79
2021/07/13 01:31:12;;;;;;;5.78;3.33;;;;;;;24.00;49.27;99260.06;4935762;29;20048;-79
2021/07/13 01:33:49;;;;;;;4.82;3.30;;;;;;;23.95;49.76;99251.81;4962645;28;20118;-79
2021/07/13 01:36:21;;;;;;;7.88;3.08;;;;;;;23.64;51.23;99254.69;4961906;28;20046;-79
2021/07/13 01:38:52;;;;;;;4.40;2.97;;;;;;;23.88;50.66;99261.56;4958273;28;20063;-79
2021/07/13 01:41:22;;;;;;;9.30;4.25;;;;;;;23.92;50.55;99251.38;4957811;28;20074;-79
2021/07/13 01:43:51;;;;;;;11.75;3.30;;;;;;;23.94;50.47;99260.00;4954592;29;20050;-79
2021/07/13 01:46:19;;;;;;;5.90;3.10;;;;;;;23.95;50.52;99257.13;4968083;28;20119;-79
2021/07/13 01:48:50;;;;;;;6.68;3.30;;;;;;;24.10;49.82;99251.78;4973936;28;20051;-79
2021/07/13 01:51:19;;;;;;;6.35;3.00;;;;;;;24.13;50.07;99250.56;4968205;28;20051;-79
2021/07/13 01:53:48;;;;;;;9.27;3.88;;;;;;;24.09;50.12;99247.47;4954617;29;20099;-79
2021/07/13 01:56:17;;;;;;;8.85;3.80;;;;;;;23.99;50.67;99241.63;4965254;28;20125;-79
2021/07/13 01:58:45;;;;;;;6.65;3.70;;;;;;;23.98;50.70;99240.81;4951072;29;20078;-79
2021/07/13 02:01:19;;;;;;;4.35;2.88;;;;;;;23.88;51.30;99240.28;4970269;28;20508;-79
2021/07/13 02:03:51;;;;;;;5.10;4.25;;;;;;;24.05;50.72;99230.22;4968859;28;20458;-79
2021/07/13 02:06:21;;;;;;;5.57;3.30;;;;;;;24.09;50.24;99238.66;4954438;29;20502;-79
2021/07/13 02:08:51;;;;;;;10.30;4.32;;;;;;;24.22;49.46;99239.63;4953802;29;20055;-79
2021/07/13 02:11:19;;;;;;;8.45;3.30;;;;;;;24.29;49.54;99234.38;4970461;28;20061;-78
2021/07/13 02:13:46;;;;;;;8.20;2.88;;;;;;;24.37;49.09;99236.94;4941581;28;20047;-79
2021/07/13 02:16:13;;;;;;;4.13;3.53;;;;;;;24.15;50.27;99237.91;4959406;28;20045;-80
2021/07/13 02:18:40;;;;;;;10.05;3.88;;;;;;;24.02;50.64;99236.75;4966691;28;20122;-81
2021/07/13 02:21:09;;;;;;;5.53;3.40;;;;;;;24.11;50.43;99240.13;4956997;28;20130;-79
2021/07/13 02:23:37;;;;;;;4.80;3.28;;;;;;;24.48;48.91;99233.75;4965918;28;20502;-79
2021/07/13 02:26:05;;;;;;;8.82;3.13;;;;;;;24.23;49.74;99243.91;4954292;28;20043;-80
2021/07/13 02:28:47;;;;;;;5.68;3.95;;;;;;;24.19;50.17;99241.84;4955266;28;20503;-79
2021/07/13 02:31:16;;;;;;;13.50;3.75;;;;;;;24.15;50.17;99235.25;4938743;29;20533;-79
2021/07/13 02:33:48;;;;;;;5.93;3.28;;;;;;;23.72;51.44;99245.81;4943858;28;20036;-79
2021/07/13 02:36:18;;;;;;;4.15;3.03;;;;;;;23.63;52.04;99246.91;4957971;29;20047;-79
2021/07/13 02:38:46;;;;;;;6.95;3.40;;;;;;;23.27;53.43;99237.78;4958184;28;20470;-81
2021/07/13 02:41:17;;;;;;;10.73;5.13;;;;;;;23.16;53.61;99232.09;4959634;28;20042;-78
2021/07/13 02:43:46;;;;;;;9.80;5.13;;;;;;;23.08;53.82;99229.53;4965131;28;20043;-79
2021/07/13 02:46:14;;;;;;;9.07;4.57;;;;;;;23.57;53.11;99226.34;4975631;23;20047;-82
2021/07/13 02:48:42;;;;;;;7.28;4.70;;;;;;;23.66;52.56;99230.59;4957864;29;20379;-81
2021/07/13 02:51:12;;;;;;;15.40;6.18;;;;;;;23.62;52.54;99231.94;4957654;29;20382;-80
2021/07/13 02:53:42;;;;;;;11.73;6.55;;;;;;;23.70;52.33;99232.69;4957800;29;20066;-78
2021/07/13 02:56:10;;;;;;;8.07;6.38;;;;;;;22.96;53.74;99224.69;4957597;29;20043;-79
2021/07/13 02:58:37;;;;;;;7.95;5.90;;;;;;;22.86;54.39;99209.97;4957931;29;20043;-79
2021/07/13 03:01:06;;;;;;;9.05;5.93;;;;;;;23.07;53.69;99215.44;4957214;29;20103;-81
2021/07/13 03:03:35;;;;;;;9.75;6.15;;;;;;;22.55;55.48;99218.03;4940727;29;20157;-80
2021/07/13 03:06:04;;;;;;;11.05;6.32;;;;;;;22.54;56.13;99213.75;4941058;29;20134;-79
2021/07/13 03:08:33;;;;;;;9.80;6.15;;;;;;;22.59;56.89;99206.06;4957191;29;20078;-78
2021/07/13 03:11:02;;;;;;;7.25;6.55;;;;;;;22.85;56.93;99211.81;4957606;29;20449;-79
2021/07/13 03:13:31;;;;;;;14.00;6.18;;;;;;;22.86;57.08;99202.00;4967765;28;20057;-79
2021/07/13 03:15:58;;;;;;;7.55;6.85;;;;;;;22.89;57.68;99201.66;4970373;28;20043;-79
2021/07/13 03:18:28;;;;;;;8.38;7.03;;;;;;;23.13;57.32;99193.44;4950487;28;20035;-79
2021/07/13 03:20:59;;;;;;;15.90;7.22;;;;;;;22.84;59.90;99202.16;4974923;28;20449;-79
2021/07/13 03:23:27;;;;;;;10.20;8.23;;;;;;;22.84;62.16;99204.00;4957193;29;20054;-79
2021/07/13 03:25:56;;;;;;;7.50;6.82;;;;;;;22.90;58.56;99206.78;4972967;28;20062;-81
2021/07/13 03:28:26;;;;;;;10.52;5.75;;;;;;;22.88;57.99;99205.31;4975932;28;20043;-81
2021/07/13 03:30:54;;;;;;;7.75;5.80;;;;;;;22.80;59.31;99203.53;4976261;28;20101;-81
2021/07/13 03:33:21;;;;;;;8.68;7.35;;;;;;;22.90;59.68;99203.28;4976391;28;20150;-81
2021/07/13 03:35:49;;;;;;;12.52;7.00;;;;;;;22.72;61.09;99201.78;4976004;28;20557;-84
2021/07/13 03:38:17;;;;;;;12.50;7.10;;;;;;;22.70;61.56;99189.69;4972211;28;20131;-80
2021/07/13 03:40:46;;;;;;;9.38;6.82;;;;;;;22.80;61.10;99187.59;4962434;28;20141;-81
2021/07/13 03:43:14;;;;;;;8.70;5.72;;;;;;;22.66;59.90;99191.06;4958217;28;20054;-79
2021/07/13 03:45:41;;;;;;;10.55;5.05;;;;;;;22.60;58.64;99192.59;4955126;28;20156;-83
2021/07/13 03:48:10;;;;;;;5.18;3.55;;;;;;;22.61;57.89;99198.72;4963725;29;20079;-82
2021/07/13 03:50:38;;;;;;;7.70;4.82;;;;;;;22.61;57.42;99191.59;4945150;28;20049;-82
2021/07/13 03:53:05;;;;;;;5.30;4.63;;;;;;;22.68;57.74;99197.81;4964443;28;20055;-82
2021/07/13 03:55:33;;;;;;;6.10;4.28;;;;;;;22.53;58.74;99190.81;4976336;28;20071;-81
2021/07/13 03:57:59;;;;;;;13.07;5.30;;;;;;;22.39;60.03;99187.13;4965530;29;20043;-83
2021/07/13 04:00:28;;;;;;;7.43;4.93;;;;;;;22.61;59.02;99183.63;4961911;28;20028;-81
2021/07/13 04:02:56;;;;;;;8.27;6.25;;;;;;;22.75;58.89;99185.50;4982476;28;20054;-82
2021/07/13 04:05:23;;;;;;;9.63;5.65;;;;;;;22.97;58.27;99181.16;4978821;28;20043;-81
2021/07/13 04:07:50;;;;;;;7.78;4.82;;;;;;;22.98;57.76;99158.06;4977926;28;20035;-80
2021/07/13 04:10:18;;;;;;;6.18;3.67;;;;;;;22.45;59.06;99159.88;4957736;29;20162;-80
2021/07/13 04:12:47;;;;;;;5.93;4.28;;;;;;;22.28;59.10;99161.81;4940657;29;20050;-79
2021/07/13 04:15:14;;;;;;;8.25;4.32;;;;;;;22.29;59.30;99168.78;4957588;28;20374;-79
2021/07/13 04:17:42;;;;;;;9.70;4.57;;;;;;;22.19;59.09;99168.19;4956705;28;20063;-79
2021/07/13 04:20:10;;;;;;;7.32;3.72;;;;;;;22.28;58.73;99169.78;4956654;28;20039;-79
2021/07/13 04:22:37;;;;;;;5.07;3.72;;;;;;;22.32;58.74;99167.59;4956484;28;20102;-79
2021/07/13 04:25:05;;;;;;;6.60;4.15;;;;;;;22.38;58.76;99166.91;4956651;29;20114;-78
2021/07/13 04:27:32;;;;;;;7.63;3.65;;;;;;;22.27;59.06;99165.50;4956598;29;20146;-79
2021/07/13 04:29:59;;;;;;;8.80;4.93;;;;;;;22.30;59.11;99170.44;4956056;28;20043;-79
2021/07/13 04:32:32;;;;;;;27.52;8.73;;;;;;;22.45;58.49;99162.50;4956583;29;20075;-79
2021/07/13 04:34:59;;;;;;;6.50;4.45;;;;;;;22.43;58.26;99143.28;4958746;28;20043;-79
2021/07/13 04:37:26;;;;;;;7.00;4.40;;;;;;;22.50;58.36;99144.22;4956955;29;20043;-81
2021/07/13 04:39:53;;;;;;;8.00;4.63;;;;;;;22.37;58.74;99142.19;4956472;29;20059;-80
2021/07/13 04:42:20;;;;;;;4.70;4.03;;;;;;;22.41;58.75;99139.97;4953802;28;20064;-77
2021/07/13 04:44:47;;;;;;;4.22;3.83;;;;;;;22.75;57.30;99134.19;4958062;28;20054;-80
2021/07/13 04:47:14;;;;;;;8.63;3.63;;;;;;;22.85;57.30;99124.13;4956897;28;20048;-79
2021/07/13 04:49:40;;;;;;;6.35;4.15;;;;;;;22.87;57.98;99127.41;4961109;28;20098;-80
2021/07/13 04:52:07;;;;;;;11.48;5.57;;;;;;;22.58;59.05;99116.75;4953859;28;20054;-81
2021/07/13 04:54:34;;;;;;;6.22;5.63;;;;;;;22.73;59.00;99107.78;4955456;28;20047;-79
2021/07/13 04:57:03;;;;;;;6.90;4.75;;;;;;;22.68;59.04;99104.84;4955628;28;20054;-80
2021/07/13 04:59:29;;;;;;;7.57;5.05;;;;;;;22.83;58.94;99098.72;4957725;28;20045;-79
2021/07/13 05:01:57;;;;;;;17.77;6.35;;;;;;;23.04;58.48;99096.19;4955448;28;20051;-80
2021/07/13 05:04:25;;;;;;;11.73;7.40;;;;;;;23.09;58.57;99095.63;4955998;28;20036;-80
2021/07/13 05:06:53;;;;;;;19.42;5.10;;;;;;;23.04;58.68;99084.72;4955068;28;20395;-81
2021/07/13 05:09:21;;;;;;;11.18;4.50;;;;;;;23.02;58.61;99090.25;4955863;29;20055;-79
2021/07/13 05:11:48;;;;;;;9.07;5.78;;;;;;;23.20;58.12;99088.00;4955457;29;20087;-79
2021/07/13 05:14:17;;;;;;;10.73;6.13;;;;;;;23.34;57.20;99099.63;4955642;28;20055;-78
2021/07/13 05:16:44;;;;;;;8.20;5.70;;;;;;;23.51;56.14;99094.91;4955920;29;20039;-80
2021/07/13 05:19:14;;;;;;;16.00;5.70;;;;;;;23.46;57.40;99098.13;4955339;29;20170;-80
2021/07/13 05:21:44;;;;;;;15.75;5.18;;;;;;;23.32;57.59;99112.28;4955663;28;20071;-79
2021/07/13 05:24:11;;;;;;;9.30;5.88;;;;;;;23.53;56.85;99114.97;4955463;29;20070;-81
2021/07/13 05:26:38;;;;;;;15.73;4.93;;;;;;;23.73;56.58;99117.06;4956081;28;20394;-81
2021/07/13 05:29:06;;;;;;;12.27;6.07;;;;;;;24.13;54.01;99123.63;4956153;28;20047;-83
2021/07/13 05:31:33;;;;;;;17.65;7.28;;;;;;;24.41;52.90;99133.50;4961107;29;20058;-81
2021/07/13 05:34:00;;;;;;;13.98;6.45;;;;;;;24.64;52.19;99135.94;4958728;28;20035;-82
2021/07/13 05:36:28;;;;;;;10.75;7.20;;;;;;;24.53;51.42;99130.13;4969072;28;20108;-80
2021/07/13 05:38:56;;;;;;;15.23;7.30;;;;;;;24.25;52.15;99123.94;4969218;28;20058;-77
2021/07/13 05:41:23;;;;;;;13.30;7.53;;;;;;;23.99;53.56;99113.84;4954926;28;20043;-77
2021/07/13 05:43:51;;;;;;;8.50;6.15;;;;;;;23.88;53.83;99107.19;4955023;28;20135;-79
2021/07/13 05:46:18;;;;;;;9.93;5.00;;;;;;;23.97;53.42;99108.72;4952935;28;20216;-78
2021/07/13 05:48:45;;;;;;;11.73;5.88;;;;;;;23.92;53.70;99103.16;4972721;28;20078;-78
2021/07/13 05:51:13;;;;;;;13.05;6.07;;;;;;;24.01;53.80;99107.31;4967940;28;20101;-79
2021/07/13 05:53:40;;;;;;;8.75;5.82;;;;;;;24.13;53.84;99098.81;4974157;28;20043;-79
2021/07/13 05:56:08;;;;;;;8.77;5.72;;;;;;;24.13;54.13;99097.00;4971514;28;20049;-78
2021/07/13 05:58:36;;;;;;;12.73;5.13;;;;;;;24.21;54.30;99104.84;4954577;29;20043;-79
2021/07/13 06:01:04;;;;;;;17.13;5.97;;;;;;;24.23;54.53;99112.63;4954577;29;20569;-78
2021/07/13 06:03:32;;;;;;;12.32;4.82;;;;;;;24.41;54.11;99114.88;4954044;28;20499;-78
2021/07/13 06:06:00;;;;;;;16.60;5.47;;;;;;;24.36;54.86;99125.28;4949638;28;20071;-80
2021/07/13 06:08:27;;;;;;;17.30;5.10;;;;;;;24.83;53.25;99135.25;4952504;28;20126;-81
2021/07/13 06:10:56;;;;;;;18.02;6.90;;;;;;;24.87;52.47;99131.16;4922381;28;20435;-80
2021/07/13 06:13:25;;;;;;;15.57;6.30;;;;;;;24.25;53.83;99122.09;4957238;28;20042;-82
2021/07/13 06:15:52;;;;;;;14.27;7.40;;;;;;;23.99;54.70;99119.19;4954500;28;20438;-82
2021/07/13 06:18:20;;;;;;;19.25;8.27;;;;;;;24.03;54.64;99118.63;4951854;28;20057;-77
2021/07/13 06:20:48;;;;;;;12.90;8.00;;;;;;;24.26;54.85;99129.06;4964302;28;20047;-77
2021/07/13 06:23:15;;;;;;;13.93;7.38;;;;;;;24.45;53.88;99132.09;4970627;28;20122;-76
2021/07/13 06:25:43;;;;;;;9.45;7.07;;;;;;;24.51;53.33;99121.50;4956470;28;20115;-77
2021/07/13 06:28:11;;;;;;;16.38;7.15;;;;;;;24.20;53.62;99121.00;4960676;28;20134;-77
2021/07/13 06:30:39;;;;;;;15.77;7.45;;;;;;;23.69;54.63;99129.09;4970581;28;20616;-79
2021/07/13 06:33:06;;;;;;;12.90;8.82;;;;;;;23.70;55.07;99128.94;4971099;28;20039;-78
2021/07/13 06:35:34;;;;;;;16.52;7.97;;;;;;;23.95;54.51;99121.38;4970840;28;20058;-79
2021/07/13 06:38:03;;;;;;;16.52;9.85;;;;;;;24.12;54.04;99121.13;4973491;28;20533;-78
2021/07/13 06:40:30;;;;;;;12.18;8.85;;;;;;;23.85;55.42;99128.84;4954295;28;20051;-77
2021/07/13 06:42:57;;;;;;;13.05;9.60;;;;;;;23.93;56.13;99130.59;4967290;28;20442;-78
2021/07/13 06:45:24;;;;;;;18.48;10.25;;;;;;;24.55;54.73;99129.91;4965243;28;20187;-78
2021/07/13 06:47:54;;;;;;;12.45;11.15;;;;;;;24.09;56.66;99126.84;4974293;28;20405;-78
2021/07/13 06:50:23;;;;;;;15.27;11.15;;;;;;;24.04;56.81;99127.41;4960672;28;20077;-79
2021/07/13 06:52:52;;;;;;;19.20;12.90;;;;;;;23.98;57.14;99117.53;4954193;29;20043;-79
2021/07/13 06:55:19;;;;;;;17.30;11.23;;;;;;;24.76;54.65;99115.72;4968915;28;20042;-79
2021/07/13 06:57:46;;;;;;;21.90;12.73;;;;;;;23.93;57.31;99126.09;4973534;28;20409;-77
2021/07/13 07:00:14;;;;;;;19.75;13.85;;;;;;;23.88;57.60;99128.50;4957448;28;20212;-78
2021/07/13 07:02:41;;;;;;;18.40;12.10;;;;;;;24.13;56.64;99118.31;4953540;28;20035;-77
2021/07/13 07:05:09;;;;;;;17.83;12.32;;;;;;;24.25;56.32;99123.94;4956453;28;20423;-78
2021/07/13 07:07:50;;;;;;;19.00;14.30;;;;;;;23.90;57.29;99128.28;4950384;28;20047;-80
2021/07/13 07:10:18;;;;;;;18.13;11.52;;;;;;;24.09;57.14;99121.53;4951659;28;20101;-79
2021/07/13 07:12:46;;;;;;;16.95;12.45;;;;;;;24.15;56.81;99115.44;4949429;28;20039;-78
2021/07/13 07:15:13;;;;;;;13.60;10.77;;;;;;;24.43;55.88;99121.63;4950506;28;20187;-76
2021/07/13 07:17:43;;;;;;;20.55;10.70;;;;;;;24.61;55.53;99139.81;4951551;28;20039;-80
2021/07/13 07:20:11;;;;;;;20.00;9.38;;;;;;;24.95;54.87;99135.53;4943495;28;20067;-78
2021/07/13 07:22:38;;;;;;;23.48;10.02;;;;;;;24.71;54.02;99134.13;4947407;28;20043;-78
2021/07/13 07:25:06;;;;;;;16.73;8.98;;;;;;;24.98;53.26;99135.97;4944802;28;20048;-80
2021/07/13 07:27:33;;;;;;;18.55;10.18;;;;;;;25.19;52.48;99134.22;4946120;28;20046;-80
2021/07/13 07:30:00;;;;;;;17.83;11.18;;;;;;;25.57;51.32;99135.44;4954848;28;20042;-79
2021/07/13 07:32:27;;;;;;;20.65;12.15;;;;;;;25.65;51.00;99133.59;4954677;28;20090;-81
2021/07/13 07:34:55;;;;;;;26.15;10.43;;;;;;;25.89;50.07;99125.09;4954185;28;20062;-81
2021/07/13 07:37:22;;;;;;;16.20;10.48;;;;;;;25.92;49.63;99118.50;4955900;28;20141;-80
2021/07/13 07:39:49;;;;;;;14.13;10.73;;;;;;;25.73;50.10;99112.09;4947964;28;20047;-83
2021/07/13 07:42:16;;;;;;;18.73;8.98;;;;;;;25.69;50.96;99116.16;4945840;28;20443;-79
2021/07/13 07:44:43;;;;;;;14.82;9.50;;;;;;;25.71;51.31;99119.44;4950569;28;20039;-81
2021/07/13 07:47:10;;;;;;;16.40;9.55;;;;;;;25.85;51.11;99105.16;4951391;28;20079;-77
2021/07/13 07:49:37;;;;;;;19.80;11.02;;;;;;;26.05;51.03;99097.16;4953413;28;20438;-78
2021/07/13 07:52:05;;;;;;;21.90;11.07;;;;;;;26.10;51.09;99089.38;4953581;28;20046;-78
2021/07/13 07:54:31;;;;;;;18.27;11.63;;;;;;;26.18;50.80;99083.81;4952308;28;20130;-80
2021/07/13 07:57:01;;;;;;;26.73;13.05;;;;;;;26.36;50.50;99086.66;4954171;28;20130;-80
2021/07/13 07:59:28;;;;;;;19.63;13.18;;;;;;;26.33;50.59;99089.75;4955195;28;20040;-79
2021/07/13 08:01:56;;;;;;;28.38;13.55;;;;;;;26.31;51.26;99088.31;4950064;28;20418;-78
2021/07/13 08:04:22;;;;;;;13.75;11.07;;;;;;;26.18;51.41;99093.66;4935834;29;20077;-79
2021/07/13 08:06:49;;;;;;;15.00;11.45;;;;;;;26.44;50.69;99088.34;4951367;28;20067;-79
2021/07/13 08:09:17;;;;;;;23.23;10.57;;;;;;;26.61;51.09;99104.75;4951611;28;20054;-78
2021/07/13 08:11:45;;;;;;;21.73;10.13;;;;;;;26.95;50.06;99100.16;4953310;28;20039;-78
2021/07/13 08:14:12;;;;;;;11.98;9.45;;;;;;;27.06;50.37;99092.31;4951810;28;20134;-79
2021/07/13 08:16:41;;;;;;;15.40;9.65;;;;;;;27.21;49.68;99073.34;4953712;28;20046;-79
2021/07/13 08:19:08;;;;;;;23.50;11.05;;;;;;;27.10;49.78;99066.81;4953062;28;20128;-78
2021/07/13 08:21:36;;;;;;;17.95;10.98;;;;;;;27.32;49.30;99058.47;4953925;28;20485;-79
2021/07/13 08:24:03;;;;;;;19.73;8.38;;;;;;;27.40;48.05;99058.25;4952771;28;20118;-80
2021/07/13 08:26:30;;;;;;;19.58;11.02;;;;;;;27.47;47.70;99066.22;4951349;28;20047;-79
2021/07/13 08:28:57;;;;;;;18.73;9.55;;;;;;;27.53;48.48;99047.44;4953642;28;20047;-79
2021/07/13 08:31:25;;;;;;;16.20;8.63;;;;;;;27.61;48.84;99049.88;4951792;28;20078;-78
2021/07/13 08:33:52;;;;;;;34.20;12.55;;;;;;;27.62;49.06;99048.84;4954435;28;20062;-78
2021/07/13 08:36:19;;;;;;;13.13;7.60;;;;;;;27.74;48.91;99046.31;4952692;28;20038;-79
2021/07/13 08:38:46;;;;;;;25.25;8.48;;;;;;;27.79;48.52;99043.00;4949600;28;20071;-79
2021/07/13 08:41:13;;;;;;;18.10;8.40;;;;;;;27.74;49.15;99045.50;4952345;28;20067;-78
2021/07/13 08:43:42;;;;;;;19.73;6.25;;;;;;;27.93;45.74;99048.03;4953067;28;20054;-81
2021/07/13 08:46:09;;;;;;;9.23;4.97;;;;;;;28.03;43.69;99027.97;4953119;28;20051;-79
2021/07/13 08:48:39;;;;;;;12.77;5.32;;;;;;;28.06;44.10;99030.22;4952191;28;20043;-79
2021/07/13 08:51:07;;;;;;;11.40;5.10;;;;;;;28.16;43.14;99017.94;4951500;28;20150;-78
2021/07/13 08:53:35;;;;;;;12.52;4.75;;;;;;;28.24;43.38;99026.78;4952513;28;20469;-79
2021/07/13 08:56:03;;;;;;;17.00;6.18;;;;;;;28.27;43.13;99027.13;4952519;28;20517;-78
2021/07/13 08:58:30;;;;;;;11.27;5.22;;;;;;;28.44;41.39;99016.69;4951097;28;20126;-79
2021/07/13 09:00:57;;;;;;;10.63;4.40;;;;;;;28.34;41.39;99014.53;4953180;28;20039;-80
2021/07/13 09:03:30;;;;;;;8.45;4.85;;;;;;;28.43;42.97;99018.53;4952127;28;20047;-79
2021/07/13 09:06:03;;;;;;;9.15;5.35;;;;;;;28.68;41.92;99031.06;4953546;28;20473;-78
2021/07/13 09:08:35;;;;;;;13.38;4.53;;;;;;;28.66;39.95;99025.94;4947479;28;20065;-79
2021/07/13 09:11:11;;;;;;;14.38;4.95;;;;;;;28.65;40.26;99018.09;4950982;28;20438;-79
2021/07/13 09:13:49;;;;;;;14.18;4.82;;;;;;;28.64;41.66;99006.56;4952210;28;20050;-79
2021/07/13 09:16:36;;;;;;;7.75;3.72;;;;;;;28.47;40.56;99002.84;4950950;28;20043;-79
2021/07/13 09:19:03;;;;;;;12.23;5.05;;;;;;;28.35;41.15;99004.63;4953456;28;20127;-79
2021/07/13 09:21:33;;;;;;;9.02;3.67;;;;;;;28.31;40.88;99011.44;4951105;28;20502;-79
2021/07/13 09:24:05;;;;;;;11.63;3.85;;;;;;;28.25;41.93;99020.38;4950936;28;20087;-79
2021/07/13 09:26:50;;;;;;;8.48;3.90;;;;;;;28.18;42.08;98999.81;4952950;28;20067;-80
2021/07/13 09:29:39;;;;;;;10.18;4.47;;;;;;;28.30;41.44;98986.50;4950039;28;20384;-79
2021/07/13 09:32:37;;;;;;;8.27;4.43;;;;;;;28.22;41.37;98984.09;4943721;28;20078;-79
2021/07/13 09:35:11;;;;;;;7.75;4.25;;;;;;;28.22;41.50;99002.03;4944211;28;20043;-80
2021/07/13 09:37:47;;;;;;;7.38;3.75;;;;;;;28.25;41.51;99009.66;4951523;28;20043;-80
2021/07/13 09:40:16;;;;;;;7.60;3.75;;;;;;;28.24;41.86;99030.25;4950873;28;20071;-82
2021/07/13 09:42:49;;;;;;;17.00;6.70;;;;;;;28.17;42.53;99041.03;4950768;28;20122;-83
2021/07/13 09:45:22;;;;;;;12.37;5.07;;;;;;;28.14;43.14;99046.84;4950401;28;20065;-80
2021/07/13 09:48:01;;;;;;;16.55;4.60;;;;;;;28.09;44.86;99059.25;4956887;28;20070;-80
2021/07/13 09:50:39;;;;;;;23.83;5.20;;;;;;;27.77;51.03;99061.13;4953011;28;20063;-79
2021/07/13 09:53:24;;;;;;;16.92;3.67;;;;;;;27.52;51.17;99061.88;4922393;28;20069;-82
2021/07/13 09:55:55;;;;;;;24.13;4.13;;;;;;;26.93;57.08;99086.19;4959975;28;20130;-84
2021/07/13 09:58:24;;;;;;;29.77;6.68;;;;;;;26.88;59.34;99105.53;4958899;28;20062;-80
2021/07/13 10:00:53;;;;;;;22.90;5.63;;;;;;;26.46;61.92;99088.94;4965170;28;20375;-77
2021/07/13 10:03:22;;;;;;;20.27;5.30;;;;;;;26.30;60.88;99092.00;4964663;28;20089;-77
2021/07/13 10:05:51;;;;;;;18.60;5.25;;;;;;;26.12;61.19;99106.00;4962564;28;20379;-80
2021/07/13 10:08:20;;;;;;;22.58;5.85;;;;;;;25.93;61.32;99120.97;4953145;28;20449;-81
2021/07/13 10:10:49;;;;;;;20.05;5.75;;;;;;;25.92;59.75;99116.66;4953293;28;20051;-84
2021/07/13 10:13:17;;;;;;;17.80;5.80;;;;;;;25.60;61.57;99108.34;4955803;28;20071;-82
2021/07/13 10:15:48;;;;;;;23.05;6.60;;;;;;;25.45;62.09;99105.00;4956373;28;20529;-82
2021/07/13 10:18:19;;;;;;;;;;;;;;;25.25;64.81;99096.13;4945869;28;20043;-82
2021/07/13 10:20:49;;;;;;;18.17;5.75;;;;;;;25.27;65.53;99102.06;4958508;28;20292;-82
2021/07/13 10:23:16;;;;;;;15.48;5.07;;;;;;;25.16;66.93;99121.31;4960469;28;20043;-79
2021/07/13 10:25:44;;;;;;;19.83;5.90;;;;;;;24.84;67.39;99128.91;4953742;28;20043;-80
2021/07/13 10:28:21;;;;;;;15.63;5.47;;;;;;;24.74;68.06;99125.75;4953609;28;20106;-82
2021/07/13 10:30:53;;;;;;;32.53;7.82;;;;;;;24.99;66.49;99137.59;4954264;28;20053;-81
2021/07/13 10:33:47;;;;;;;23.10;6.83;;;;;;;24.72;66.28;99125.13;4965276;28;20051;-81
2021/07/13 10:36:32;;;;;;;13.15;4.32;;;;;;;24.62;64.28;99116.66;4967998;28;20294;-78
2021/07/13 10:39:33;;;;;;;17.92;5.78;;;;;;;24.63;62.01;99097.81;4953452;28;20051;-81
2021/07/13 10:42:02;;;;;;;19.92;4.88;;;;;;;24.83;60.68;99089.94;4945776;28;20123;-82
2021/07/13 10:44:41;;;;;;;10.88;4.13;;;;;;;24.79;60.56;99060.19;4935144;28;20106;-79
2021/07/13 10:47:32;;;;;;;13.27;4.88;;;;;;;24.72;61.17;99039.88;4952486;28;20105;-79
2021/07/13 10:50:32;;;;;;;14.63;4.15;;;;;;;24.75;60.98;99061.59;4957969;28;20039;-79
2021/07/13 10:53:03;;;;;;;14.13;4.35;;;;;;;24.83;58.97;99042.78;4917658;28;20051;-81
2021/07/13 10:55:30;;;;;;;17.40;5.47;;;;;;;24.74;58.64;99040.47;4962718;28;20395;-82
2021/07/13 10:58:10;;;;;;;14.93;3.08;;;;;;;24.85;56.79;99061.25;4963255;28;20422;-80
2021/07/13 11:00:45;;;;;;;10.27;3.90;;;;;;;24.94;54.23;99060.06;4950813;28;20558;-78
2021/07/13 11:03:31;;;;;;;9.25;2.47;;;;;;;25.01;54.54;99046.75;4959862;28;20127;-79
2021/07/13 11:05:57;;;;;;;8.88;2.80;;;;;;;25.12;53.72;99029.41;4953173;28;20079;-79
2021/07/13 11:08:52;;;;;;;7.68;2.65;;;;;;;24.97;55.50;99008.19;4955597;28;20067;-78
2021/07/13 11:11:28;;;;;;;6.57;2.38;;;;;;;24.88;55.50;98988.06;4953595;28;20039;-81
2021/07/13 11:13:58;;;;;;;12.63;2.70;;;;;;;24.96;56.07;98988.69;4951251;28;20054;-83
2021/07/13 11:16:26;;;;;;;17.25;3.95;;;;;;;25.00;55.90;98983.81;4965373;28;20524;-83
2021/07/13 11:18:54;;;;;;;11.00;2.40;;;;;;;25.11;55.24;98982.44;4961093;28;20130;-81
2021/07/13 11:21:28;;;;;;;11.77;2.80;;;;;;;25.28;54.80;98992.50;4967899;28;20043;-78
2021/07/13 11:23:58;;;;;;;12.63;3.97;;;;;;;25.26;55.30;98993.75;4947651;28;20134;-78
2021/07/13 11:26:26;;;;;;;5.60;2.40;;;;;;;25.17;56.40;99005.63;4956647;28;20070;-78
2021/07/13 11:28:59;;;;;;;9.70;2.70;;;;;;;25.27;55.85;99016.72;4956055;28;20416;-80
2021/07/13 11:31:37;;;;;;;11.07;3.58;;;;;;;25.49;57.12;99020.88;4959969;28;20046;-79
2021/07/13 11:34:07;;;;;;;12.88;4.47;;;;;;;25.43;58.71;99029.69;4962007;28;20043;-80
2021/07/13 11:36:45;;;;;;;19.45;6.10;;;;;;;25.22;60.95;99040.50;4956307;28;20118;-80
2021/07/13 11:39:29;;;;;;;15.48;4.18;;;;;;;25.22;60.94;99051.19;4957413;28;20070;-79
2021/07/13 11:42:02;;;;;;;14.13;3.97;;;;;;;25.33;61.46;99066.59;4967176;28;20125;-77
2021/07/13 11:44:30;;;;;;;23.58;5.72;;;;;;;25.44;61.04;99084.69;4966340;28;20390;-77